Nina — ICMG — position and weather

sailwx.info

Track history (hours):
 
Tides and Currents Weather Stations Pressure Air Temp Water Temp Dewpoint Dewpoint Depression Visibility Wind Speed Wind Dir Waves Ship Positions

Nina

Last reported at 2016-Apr-04 04:11 UTC. Time now 2016-Apr-30 15:06 UTC.
Position N 15°33' W 017°56'.
Warning: this ship's position is 26 days out of date.

Length 180 m; draft 10.5 m.

Type: Ship (hazmat cat A). MMSI: 247239700.

Date/timePositionNaut miles runAvg speedWind from/ knotsBaromVisibWave heightAir tempDewpointWater temp
2016-Apr-04 04:11N 15°33' W 017°56'913.7
2016-Apr-04 03:33N 15°42' W 017°56'1414.1
2016-Apr-04 02:33N 15°56' W 017°56'71113.9
2016-Apr-01 23:16N 27°31' W 015°17'1014.2
2016-Apr-01 22:33N 27°40' W 015°12'1413.6
2016-Apr-01 21:33N 27°53' W 015°07'1413.8
2016-Apr-01 20:34N 28°06' W 015°01'1413.9
2016-Apr-01 19:33N 28°19' W 014°56'1413.9
2016-Apr-01 18:33N 28°32' W 014°51'1413.8
2016-Apr-01 17:33N 28°46' W 014°47'5613.6
2016-Apr-01 13:26N 29°40' W 014°33'1513.4
2016-Apr-01 12:18N 29°55' W 014°29'1013.5
2016-Apr-01 11:32N 30°05' W 014°26'1713.6
2016-Apr-01 10:17N 30°21' W 014°22'23513.8
2016-Mar-31 17:15N 34°10' W 013°18'1013.9
2016-Mar-31 16:33N 34°19' W 013°15'  
2016-Mar-27 16:15N 49°43' W 003°40'7 9.7
2016-Mar-27 15:33N 49°47' W 003°31'1210.9
2016-Mar-27 14:26N 49°53' W 003°15'910.6
2016-Mar-27 13:33N 49°58' W 003°02'9 8.9
2016-Mar-27 12:33N 50°00' W 002°49'83 9.2
2016-Mar-27 03:30N 50°22' W 000°43'1212.9
2016-Mar-27 02:33N 50°25' W 000°25'1211.9
2016-Mar-27 01:32N 50°29' W 000°06'1010.7
2016-Mar-27 00:33N 50°31' E 000°09'10 9.6
2016-Mar-26 23:33N 50°34' E 000°24'3110.4
2016-Mar-26 20:31N 50°50' E 001°07'1212.6
2016-Mar-26 19:33N 50°58' E 001°22'1212.0
2016-Mar-26 18:34N 51°06' E 001°35'1110.8
2016-Mar-26 17:33N 51°14' E 001°47'1010.1
2016-Mar-26 16:33N 51°22' E 001°56'9 9.2
2016-Mar-26 15:34N 51°23' E 002°11'1110.0
2016-Mar-26 14:25N 51°23' E 002°29'910.6
2016-Mar-26 13:32N 51°22' E 002°44'1010.5
2016-Mar-26 12:33N 51°24' E 003°00'1111.1
2016-Mar-26 11:33N 51°25' E 003°18'1111.2
2016-Mar-26 10:33N 51°26' E 003°36'9 8.9
2016-Mar-26 09:33N 51°21' E 003°48'9 9.3
2016-Mar-26 08:33N 51°24' E 004°02'9 9.3
2016-Mar-26 07:34N 51°21' E 004°16'1 0.7
2016-Mar-26 06:33N 51°21' E 004°17'1 0.8
2016-Mar-26 05:33N 51°20' E 004°18'4 4.1
2016-Mar-26 04:33N 51°16' E 004°21'0 0.0
2016-Mar-26 03:14N 51°16' E 004°21'0 0.0
2016-Mar-26 02:28N 51°16' E 004°21'0 0.0
2016-Mar-26 01:32N 51°16' E 004°21'0 0.0
2016-Mar-26 00:28N 51°16' E 004°21'0 0.0
2016-Mar-25 23:32N 51°16' E 004°21'0 0.0
2016-Mar-25 22:28N 51°16' E 004°21'0 0.0
2016-Mar-25 21:32N 51°16' E 004°21'0 0.0
2016-Mar-25 20:28N 51°16' E 004°21'0 0.0
2016-Mar-25 19:32N 51°16' E 004°21'0 0.0
2016-Mar-25 18:32N 51°16' E 004°21'0 0.0
2016-Mar-25 17:32N 51°16' E 004°21'0 0.0
2016-Mar-25 16:28N 51°16' E 004°21'0 0.0
2016-Mar-25 15:32N 51°16' E 004°21'0 0.0
2016-Mar-25 14:28N 51°16' E 004°21'0 0.0
2016-Mar-25 13:28N 51°16' E 004°21'0 0.0
2016-Mar-25 12:28N 51°16' E 004°21'0 0.0
2016-Mar-25 11:26N 51°16' E 004°21'0 0.0
2016-Mar-25 10:32N 51°16' E 004°21'0 0.0
2016-Mar-25 09:32N 51°16' E 004°21'0 0.0
2016-Mar-25 08:32N 51°16' E 004°21'0 0.0
2016-Mar-25 07:32N 51°16' E 004°21'0 0.0
2016-Mar-25 06:32N 51°16' E 004°21'0 0.0
2016-Mar-25 05:22N 51°16' E 004°21'0 0.0
2016-Mar-25 04:32N 51°16' E 004°21'  
Track history (hours):
 
Tides and Currents Weather Stations Pressure Air Temp Water Temp Dewpoint Dewpoint Depression Visibility Wind Speed Wind Dir Waves Ship Positions

Nina

Last reported at 2016-Apr-04 04:11 UTC. Time now 2016-Apr-30 15:06 UTC.
Position N 15°33' W 017°56'.
Warning: this ship's position is 26 days out of date.

Length 180 m; draft 10.5 m.

Type: Ship (hazmat cat A). MMSI: 247239700.

Date/timePositionNaut miles runAvg speedWind from/ knotsBaromVisibWave heightAir tempDewpointWater temp
2016-Apr-04 04:11N 15°33' W 017°56'913.7
2016-Apr-04 03:33N 15°42' W 017°56'1414.1
2016-Apr-04 02:33N 15°56' W 017°56'71113.9
2016-Apr-01 23:16N 27°31' W 015°17'1014.2
2016-Apr-01 22:33N 27°40' W 015°12'1413.6
2016-Apr-01 21:33N 27°53' W 015°07'1413.8
2016-Apr-01 20:34N 28°06' W 015°01'1413.9
2016-Apr-01 19:33N 28°19' W 014°56'1413.9
2016-Apr-01 18:33N 28°32' W 014°51'1413.8
2016-Apr-01 17:33N 28°46' W 014°47'5613.6
2016-Apr-01 13:26N 29°40' W 014°33'1513.4
2016-Apr-01 12:18N 29°55' W 014°29'1013.5
2016-Apr-01 11:32N 30°05' W 014°26'1713.6
2016-Apr-01 10:17N 30°21' W 014°22'23513.8
2016-Mar-31 17:15N 34°10' W 013°18'1013.9
2016-Mar-31 16:33N 34°19' W 013°15'  
2016-Mar-27 16:15N 49°43' W 003°40'7 9.7
2016-Mar-27 15:33N 49°47' W 003°31'1210.9
2016-Mar-27 14:26N 49°53' W 003°15'910.6
2016-Mar-27 13:33N 49°58' W 003°02'9 8.9
2016-Mar-27 12:33N 50°00' W 002°49'83 9.2
2016-Mar-27 03:30N 50°22' W 000°43'1212.9
2016-Mar-27 02:33N 50°25' W 000°25'1211.9
2016-Mar-27 01:32N 50°29' W 000°06'1010.7
2016-Mar-27 00:33N 50°31' E 000°09'10 9.6
2016-Mar-26 23:33N 50°34' E 000°24'3110.4
2016-Mar-26 20:31N 50°50' E 001°07'1212.6
2016-Mar-26 19:33N 50°58' E 001°22'1212.0
2016-Mar-26 18:34N 51°06' E 001°35'1110.8
2016-Mar-26 17:33N 51°14' E 001°47'1010.1
2016-Mar-26 16:33N 51°22' E 001°56'9 9.2
2016-Mar-26 15:34N 51°23' E 002°11'1110.0
2016-Mar-26 14:25N 51°23' E 002°29'910.6
2016-Mar-26 13:32N 51°22' E 002°44'1010.5
2016-Mar-26 12:33N 51°24' E 003°00'1111.1
2016-Mar-26 11:33N 51°25' E 003°18'1111.2
2016-Mar-26 10:33N 51°26' E 003°36'9 8.9
2016-Mar-26 09:33N 51°21' E 003°48'9 9.3
2016-Mar-26 08:33N 51°24' E 004°02'9 9.3
2016-Mar-26 07:34N 51°21' E 004°16'1 0.7
2016-Mar-26 06:33N 51°21' E 004°17'1 0.8
2016-Mar-26 05:33N 51°20' E 004°18'4 4.1
2016-Mar-26 04:33N 51°16' E 004°21'0 0.0
2016-Mar-26 03:14N 51°16' E 004°21'0 0.0
2016-Mar-26 02:28N 51°16' E 004°21'0 0.0
2016-Mar-26 01:32N 51°16' E 004°21'0 0.0
2016-Mar-26 00:28N 51°16' E 004°21'0 0.0
2016-Mar-25 23:32N 51°16' E 004°21'0 0.0
2016-Mar-25 22:28N 51°16' E 004°21'0 0.0
2016-Mar-25 21:32N 51°16' E 004°21'0 0.0
2016-Mar-25 20:28N 51°16' E 004°21'0 0.0
2016-Mar-25 19:32N 51°16' E 004°21'0 0.0
2016-Mar-25 18:32N 51°16' E 004°21'0 0.0
2016-Mar-25 17:32N 51°16' E 004°21'0 0.0
2016-Mar-25 16:28N 51°16' E 004°21'0 0.0
2016-Mar-25 15:32N 51°16' E 004°21'0 0.0
2016-Mar-25 14:28N 51°16' E 004°21'0 0.0
2016-Mar-25 13:28N 51°16' E 004°21'0 0.0
2016-Mar-25 12:28N 51°16' E 004°21'0 0.0
2016-Mar-25 11:26N 51°16' E 004°21'0 0.0
2016-Mar-25 10:32N 51°16' E 004°21'0 0.0
2016-Mar-25 09:32N 51°16' E 004°21'0 0.0
2016-Mar-25 08:32N 51°16' E 004°21'0 0.0
2016-Mar-25 07:32N 51°16' E 004°21'0 0.0
2016-Mar-25 06:32N 51°16' E 004°21'0 0.0
2016-Mar-25 05:22N 51°16' E 004°21'0 0.0
2016-Mar-25 04:32N 51°16' E 004°21'  

Dump ship's entire track history